Time;durP1;ratioP1;P1;durP2;ratioP2;P2;SDS_P1;SDS_P2;PMS_P1;PMS_P2;Temp;Humidity;BMP_temperature;BMP_pressure;BME280_temperature;BME280_humidity;BME280_pressure;Samples;Min_cycle;Max_cycle;Signal;HPM_P1;HPM_P2
2021/12/07 00:02:10;;;;;;;5.30;3.60;;;3.50;99.90;;;;;;10414191;28;20216;-69
2021/12/07 00:07:13;;;;;;;6.07;4.23;;;3.40;99.90;;;;;;10416743;28;20299;-69
2021/12/07 00:12:14;;;;;;;4.83;3.70;;;3.20;99.90;;;;;;10416567;28;20726;-69
2021/12/07 00:17:15;;;;;;;7.00;5.33;;;3.20;99.90;;;;;;10414709;28;20231;-69
2021/12/07 00:22:15;;;;;;;10.10;5.57;;;3.20;99.90;;;;;;10404295;28;20655;-69
2021/12/07 00:27:19;;;;;;;8.47;5.50;;;3.20;99.90;;;;;;10413902;28;20634;-69
2021/12/07 00:32:31;;;;;;;7.77;5.87;;;3.10;99.90;;;;;;10411381;28;20703;-69
2021/12/07 00:37:35;;;;;;;7.73;5.10;;;3.10;99.90;;;;;;10399805;28;20259;-69
2021/12/07 00:42:36;;;;;;;7.37;4.93;;;3.10;99.90;;;;;;10405107;28;20314;-69
2021/12/07 00:47:37;;;;;;;7.83;5.20;;;3.10;99.90;;;;;;10411809;28;20224;-69
2021/12/07 00:52:38;;;;;;;7.93;5.10;;;3.00;99.90;;;;;;10413627;28;20224;-69
2021/12/07 00:57:39;;;;;;;5.67;4.87;;;3.00;99.90;;;;;;10399044;28;20221;-68
2021/12/07 01:02:41;;;;;;;7.90;5.60;;;2.90;99.90;;;;;;10400359;28;20223;-68
2021/12/07 01:29:07;;;;;;;9.40;6.87;;;2.80;99.90;;;;;;10411444;28;20216;-69
2021/12/07 01:44:59;;;;;;;9.57;7.80;;;2.70;99.90;;;;;;10412944;28;20216;-68
2021/12/07 02:00:32;;;;;;;13.10;9.17;;;2.90;99.90;;;;;;10412467;28;20221;-68
2021/12/07 02:05:32;;;;;;;12.77;10.13;;;2.90;99.90;;;;;;10418243;28;20223;-69
2021/12/07 02:10:36;;;;;;;12.50;10.40;;;3.00;99.90;;;;;;10418878;28;20718;-68
2021/12/07 02:15:37;;;;;;;13.27;11.07;;;3.00;99.90;;;;;;10417269;28;20232;-69
2021/12/07 02:20:38;;;;;;;16.57;10.60;;;3.10;99.90;;;;;;10418024;28;20216;-69
2021/12/07 02:25:38;;;;;;;13.87;10.67;;;3.20;99.90;;;;;;10416894;28;20688;-69
2021/12/07 02:30:40;;;;;;;14.40;11.00;;;3.20;99.90;;;;;;10398678;28;20228;-69
2021/12/07 02:35:41;;;;;;;13.27;10.47;;;3.20;99.90;;;;;;10417030;28;20562;-69
2021/12/07 02:40:41;;;;;;;13.80;10.53;;;3.30;99.90;;;;;;10416885;28;20259;-69
2021/12/07 02:45:42;;;;;;;12.83;10.27;;;3.30;99.90;;;;;;10415344;28;20243;-69
2021/12/07 02:50:43;;;;;;;13.03;9.43;;;3.40;99.90;;;;;;10402137;28;20219;-69
2021/12/07 02:55:44;;;;;;;14.87;10.47;;;3.40;99.90;;;;;;10416220;28;20221;-68
2021/12/07 03:00:54;;;;;;;13.00;9.53;;;3.40;99.90;;;;;;10415965;28;20216;-68
2021/12/07 03:06:10;;;;;;;14.27;8.77;;;3.50;99.90;;;;;;10406576;28;20266;-67
2021/12/07 03:27:13;;;;;;;11.07;8.40;;;3.50;99.90;;;;;;10416151;28;20221;-69
2021/12/07 03:32:14;;;;;;;10.77;8.33;;;3.50;99.90;;;;;;10414980;28;20244;-69
2021/12/07 03:37:14;;;;;;;12.07;8.70;;;3.60;99.90;;;;;;10414619;28;20221;-69
2021/12/07 03:42:16;;;;;;;10.83;8.07;;;3.60;99.90;;;;;;10414663;28;20220;-69
2021/12/07 03:47:16;;;;;;;10.07;7.73;;;3.60;99.90;;;;;;10415073;28;20221;-68
2021/12/07 03:52:17;;;;;;;12.63;8.30;;;3.70;99.90;;;;;;10414769;28;20650;-69
2021/12/07 03:57:18;;;;;;;9.47;7.33;;;3.80;99.90;;;;;;10414219;28;20216;-68
2021/12/07 04:02:18;;;;;;;8.40;6.50;;;3.80;99.90;;;;;;10413801;28;20224;-68
2021/12/07 04:07:22;;;;;;;14.93;6.80;;;3.80;99.90;;;;;;10414036;28;20628;-68
2021/12/07 04:12:22;;;;;;;9.27;6.60;;;3.80;99.90;;;;;;10414455;28;20231;-70
2021/12/07 04:17:23;;;;;;;8.23;5.67;;;3.80;99.90;;;;;;10415505;28;20224;-68
2021/12/07 04:22:26;;;;;;;7.30;5.07;;;3.80;99.90;;;;;;10413866;28;20239;-68
2021/12/07 04:27:34;;;;;;;8.60;4.80;;;3.80;99.90;;;;;;10385633;28;20271;-69
2021/12/07 04:32:35;;;;;;;10.57;5.20;;;3.80;99.90;;;;;;10404716;28;20229;-68
2021/12/07 04:37:39;;;;;;;9.37;4.97;;;3.90;99.90;;;;;;10412253;28;20290;-68
2021/12/07 04:42:40;;;;;;;7.43;4.70;;;3.80;99.90;;;;;;10411864;28;20217;-68
2021/12/07 04:58:00;;;;;;;5.90;3.70;;;3.90;99.90;;;;;;10409849;28;20254;-68
2021/12/07 05:03:05;;;;;;;7.80;3.77;;;3.90;99.90;;;;;;10396125;28;21038;-68
2021/12/07 05:08:10;;;;;;;6.83;4.00;;;3.90;99.90;;;;;;10413729;28;20585;-69
2021/12/07 05:13:25;;;;;;;7.63;4.30;;;3.90;99.90;;;;;;10409647;28;20221;-69
2021/12/07 05:39:40;;;;;;;8.60;3.60;;;3.80;99.90;;;;;;10406212;28;20228;-69
2021/12/07 05:44:41;;;;;;;7.73;3.43;;;3.80;99.90;;;;;;10412857;28;20217;-69
2021/12/07 05:49:45;;;;;;;7.77;3.50;;;3.80;99.90;;;;;;10419470;28;20248;-69
2021/12/07 05:54:46;;;;;;;11.53;3.57;;;3.80;99.90;;;;;;10412613;28;20602;-69
2021/12/07 05:59:47;;;;;;;4.57;3.23;;;3.80;99.90;;;;;;10414521;28;20220;-70
2021/12/07 06:04:48;;;;;;;9.47;3.47;;;3.80;99.90;;;;;;10420543;28;20227;-69
2021/12/07 06:09:48;;;;;;;4.40;2.90;;;3.80;99.90;;;;;;10413459;28;20227;-70
2021/12/07 06:14:49;;;;;;;6.53;3.03;;;3.90;99.90;;;;;;10413636;28;20224;-69
2021/12/07 06:19:50;;;;;;;7.63;3.20;;;3.90;99.90;;;;;;10409658;28;20248;-69
2021/12/07 06:24:51;;;;;;;3.93;2.73;;;3.90;99.90;;;;;;10401383;28;20216;-69
2021/12/07 06:29:51;;;;;;;6.60;2.63;;;3.90;99.90;;;;;;10414103;28;20255;-69
2021/12/07 06:34:52;;;;;;;5.43;2.20;;;3.90;99.90;;;;;;10400783;28;20252;-69
2021/12/07 06:39:53;;;;;;;6.17;2.30;;;4.00;99.90;;;;;;10417200;28;20267;-70
2021/12/07 06:44:54;;;;;;;5.27;2.23;;;4.00;99.90;;;;;;10419544;28;20221;-70
2021/12/07 06:49:54;;;;;;;5.90;2.30;;;4.00;99.90;;;;;;10421197;28;20224;-69
2021/12/07 06:54:57;;;;;;;4.90;2.30;;;4.00;99.90;;;;;;10417328;28;20255;-69
2021/12/07 06:59:58;;;;;;;7.20;2.47;;;4.00;99.90;;;;;;10397793;28;20251;-69
2021/12/07 07:04:59;;;;;;;5.30;2.30;;;4.00;99.90;;;;;;10410202;28;20237;-69
2021/12/07 07:10:00;;;;;;;4.07;2.10;;;4.00;99.90;;;;;;10415842;28;20223;-69
2021/12/07 07:15:00;;;;;;;4.10;2.03;;;4.00;99.90;;;;;;10416969;28;20232;-69
2021/12/07 07:20:03;;;;;;;4.83;2.40;;;4.10;99.90;;;;;;10397340;28;20220;-69
2021/12/07 07:25:05;;;;;;;3.90;1.90;;;4.20;99.90;;;;;;10407216;28;20229;-70
2021/12/07 07:30:09;;;;;;;5.63;2.23;;;4.20;99.90;;;;;;10416904;28;20208;-70
2021/12/07 07:35:11;;;;;;;5.23;2.77;;;4.30;99.90;;;;;;10395449;28;20204;-70
2021/12/07 07:40:16;;;;;;;5.00;2.40;;;4.30;99.90;;;;;;10412370;28;20207;-70
2021/12/07 07:45:17;;;;;;;5.17;2.07;;;4.30;99.90;;;;;;10414151;28;20181;-70
2021/12/07 07:50:24;;;;;;;5.37;2.20;;;4.30;99.90;;;;;;10411554;28;20238;-70
2021/12/07 07:55:26;;;;;;;3.73;1.93;;;4.40;99.90;;;;;;10412595;28;20220;-69
2021/12/07 08:00:26;;;;;;;5.07;2.10;;;4.40;99.90;;;;;;10413189;28;20213;-70
2021/12/07 08:05:27;;;;;;;6.50;2.83;;;4.50;99.90;;;;;;10417230;28;20220;-69
2021/12/07 08:10:28;;;;;;;5.33;2.30;;;4.60;99.90;;;;;;10412138;28;20246;-69
2021/12/07 08:15:31;;;;;;;4.47;2.17;;;4.70;99.90;;;;;;10412703;28;20236;-69
2021/12/07 08:20:32;;;;;;;4.87;2.23;;;4.90;99.90;;;;;;10398969;28;20217;-69
2021/12/07 08:25:37;;;;;;;3.47;1.67;;;5.10;99.90;;;;;;10399793;28;20608;-69
2021/12/07 08:30:39;;;;;;;4.80;1.73;;;5.30;99.90;;;;;;10411360;28;20219;-69
2021/12/07 08:35:39;;;;;;;4.53;1.97;;;5.60;99.90;;;;;;10406778;28;20240;-70
2021/12/07 08:40:41;;;;;;;7.43;1.83;;;5.90;99.90;;;;;;10405940;28;20235;-69
2021/12/07 08:45:42;;;;;;;4.27;1.60;;;7.10;99.90;;;;;;10412283;28;20264;-70
2021/12/07 08:50:44;;;;;;;3.07;1.60;;;10.50;99.90;;;;;;10412304;28;20636;-70
2021/12/07 09:01:07;;;;;;;5.03;1.57;;;15.00;97.20;;;;;;10394430;28;20227;-70
2021/12/07 09:06:08;;;;;;;7.07;1.83;;;16.40;84.60;;;;;;10396072;28;20218;-70
2021/12/07 09:11:10;;;;;;;4.20;1.57;;;13.70;88.90;;;;;;10413664;28;20222;-69
2021/12/07 09:16:14;;;;;;;6.77;1.80;;;11.10;96.20;;;;;;10410921;28;20634;-70
2021/12/07 09:21:17;;;;;;;8.00;2.50;;;9.10;99.90;;;;;;10405099;28;20357;-69
2021/12/07 09:26:18;;;;;;;6.27;2.70;;;8.00;99.90;;;;;;10389315;28;20225;-69
2021/12/07 09:31:22;;;;;;;7.80;2.30;;;7.30;99.90;;;;;;10387998;28;20217;-70
2021/12/07 09:36:24;;;;;;;8.40;2.20;;;7.00;99.90;;;;;;10395655;28;20231;-71
2021/12/07 09:41:26;;;;;;;8.87;2.17;;;6.70;99.90;;;;;;10406411;28;20224;-71
2021/12/07 09:46:27;;;;;;;6.23;2.10;;;6.60;99.90;;;;;;10406278;28;20722;-71
2021/12/07 09:51:29;;;;;;;11.07;2.63;;;6.60;99.90;;;;;;10411213;28;20263;-69
2021/12/07 09:56:30;;;;;;;5.00;2.17;;;6.60;99.90;;;;;;10409923;28;20347;-70
2021/12/07 10:01:31;;;;;;;6.47;2.40;;;6.60;99.90;;;;;;10407493;28;20213;-70
2021/12/07 10:06:32;;;;;;;6.57;2.00;;;6.60;99.90;;;;;;10409883;28;20307;-70
2021/12/07 10:11:33;;;;;;;7.43;2.10;;;6.60;99.90;;;;;;10412114;28;20311;-70
2021/12/07 10:16:34;;;;;;;6.90;2.07;;;6.60;99.90;;;;;;10422282;28;20243;-69
2021/12/07 10:21:39;;;;;;;8.03;2.30;;;6.70;99.90;;;;;;10410571;28;20224;-70
2021/12/07 10:26:43;;;;;;;8.30;2.00;;;6.70;99.90;;;;;;10415486;28;20228;-70
2021/12/07 10:31:49;;;;;;;4.63;1.80;;;6.90;99.90;;;;;;10414994;28;20244;-71
2021/12/07 10:36:56;;;;;;;7.33;2.33;;;7.10;99.90;;;;;;10413953;28;20253;-71
2021/12/07 10:42:01;;;;;;;6.10;1.73;;;7.20;99.90;;;;;;10413188;28;20410;-71
2021/12/07 10:47:07;;;;;;;4.93;1.80;;;7.30;99.90;;;;;;10404111;28;20212;-71
2021/12/07 10:52:17;;;;;;;6.83;2.57;;;7.40;99.90;;;;;;10414997;28;20228;-70
2021/12/07 10:57:29;;;;;;;4.93;1.60;;;7.50;99.90;;;;;;10406692;28;20298;-70
2021/12/07 11:02:33;;;;;;;5.73;1.90;;;7.70;99.90;;;;;;10410221;28;20710;-70
2021/12/07 11:07:35;;;;;;;5.73;1.57;;;7.90;99.90;;;;;;10416983;28;20454;-69
2021/12/07 11:13:00;;;;;;;7.77;1.87;;;8.10;99.90;;;;;;10397658;28;20234;-69
2021/12/07 11:18:07;;;;;;;6.93;2.13;;;8.40;99.90;;;;;;10417897;28;20748;-69
2021/12/07 11:23:13;;;;;;;12.47;2.40;;;8.90;99.90;;;;;;10393886;28;20229;-70
2021/12/07 11:33:48;;;;;;;4.90;1.43;;;9.70;99.90;;;;;;10400954;28;20253;-69
2021/12/07 11:38:49;;;;;;;8.17;2.03;;;9.80;99.90;;;;;;10416165;28;20331;-69
2021/12/07 11:43:57;;;;;;;5.97;1.80;;;9.30;99.90;;;;;;10416467;28;20222;-70
2021/12/07 11:49:16;;;;;;;7.03;1.90;;;8.90;99.90;;;;;;10414311;28;20254;-70
2021/12/07 11:54:18;;;;;;;5.23;1.40;;;8.70;99.90;;;;;;10414360;28;20280;-70
2021/12/07 11:59:19;;;;;;;7.47;1.80;;;8.30;99.90;;;;;;10414566;28;20224;-71
2021/12/07 12:04:20;;;;;;;7.57;1.90;;;8.10;99.90;;;;;;10417685;28;20683;-71
2021/12/07 12:09:23;;;;;;;9.13;2.03;;;8.20;99.90;;;;;;10415456;28;20235;-71
2021/12/07 12:14:54;;;;;;;9.80;2.10;;;8.30;99.90;;;;;;10411996;28;20325;-71
2021/12/07 12:20:22;;;;;;;6.83;1.67;;;8.30;99.90;;;;;;10391759;28;20210;-72
2021/12/07 12:25:25;;;;;;;6.97;1.83;;;8.20;99.90;;;;;;10412334;28;20710;-70
2021/12/07 12:30:29;;;;;;;6.40;1.73;;;8.10;99.90;;;;;;10405210;28;20591;-71
2021/12/07 12:35:43;;;;;;;8.87;1.77;;;8.00;99.90;;;;;;10400932;28;20247;-69
2021/12/07 12:41:13;;;;;;;8.27;2.13;;;7.80;99.90;;;;;;10404646;28;20249;-69
2021/12/07 12:46:18;;;;;;;6.93;1.90;;;7.60;99.90;;;;;;10421492;28;20220;-70
2021/12/07 12:51:19;;;;;;;11.03;3.83;;;7.50;99.90;;;;;;10404668;28;20243;-69
2021/12/07 12:56:30;;;;;;;8.13;1.77;;;7.40;99.90;;;;;;10383473;28;20241;-69
2021/12/07 13:01:40;;;;;;;9.63;2.30;;;7.40;99.90;;;;;;10392246;28;20217;-70
2021/12/07 13:07:23;;;;;;;7.03;1.93;;;7.30;99.90;;;;;;10410828;28;20225;-70
2021/12/07 13:12:38;;;;;;;7.20;1.97;;;7.50;99.90;;;;;;10410906;28;20239;-70
2021/12/07 13:17:45;;;;;;;8.53;2.23;;;7.60;99.90;;;;;;10390761;28;20233;-70
2021/12/07 13:22:53;;;;;;;8.10;2.13;;;7.60;99.90;;;;;;10405587;28;20300;-69
2021/12/07 13:28:11;;;;;;;11.27;2.00;;;7.50;99.90;;;;;;10403702;28;20232;-70
2021/12/07 13:33:13;;;;;;;5.10;2.33;;;7.40;99.90;;;;;;10390824;28;20669;-69
2021/12/07 13:38:29;;;;;;;8.30;2.23;;;7.30;99.90;;;;;;10412676;28;20663;-69
2021/12/07 13:43:37;;;;;;;7.80;2.00;;;7.40;99.90;;;;;;10405802;28;20266;-70
2021/12/07 13:48:38;;;;;;;7.47;2.30;;;7.30;99.90;;;;;;10399526;28;20216;-70
2021/12/07 13:53:42;;;;;;;7.87;2.30;;;7.20;99.90;;;;;;10420059;28;20224;-70
2021/12/07 13:59:06;;;;;;;7.33;1.77;;;7.20;99.90;;;;;;10423948;28;20224;-70
2021/12/07 14:04:08;;;;;;;7.77;1.90;;;7.20;99.90;;;;;;10433909;28;20242;-71
2021/12/07 14:09:10;;;;;;;5.17;2.07;;;7.20;99.90;;;;;;10421986;28;20220;-70
2021/12/07 14:14:14;;;;;;;7.27;2.50;;;7.30;99.90;;;;;;10423255;28;20228;-70
2021/12/07 14:19:15;;;;;;;5.87;2.13;;;7.20;99.90;;;;;;10415558;28;20221;-70
2021/12/07 14:24:18;;;;;;;6.83;2.60;;;7.10;99.90;;;;;;10419309;28;20222;-71
2021/12/07 14:29:25;;;;;;;8.07;2.40;;;6.90;99.90;;;;;;10408760;28;20213;-71
2021/12/07 14:34:32;;;;;;;7.60;2.73;;;6.60;99.90;;;;;;10410649;28;20248;-71
2021/12/07 14:39:42;;;;;;;3.97;2.67;;;6.40;99.90;;;;;;10400313;28;20240;-70
2021/12/07 14:44:46;;;;;;;7.87;2.50;;;6.10;99.90;;;;;;10387509;28;20236;-69
2021/12/07 14:49:50;;;;;;;11.97;2.97;;;5.90;99.90;;;;;;10410269;28;20252;-70
2021/12/07 14:54:52;;;;;;;7.47;2.40;;;5.80;99.90;;;;;;10413511;28;20217;-69
2021/12/07 15:00:00;;;;;;;6.67;2.40;;;5.90;99.90;;;;;;10413101;28;20216;-70
2021/12/07 15:05:07;;;;;;;10.03;2.60;;;5.70;99.90;;;;;;10419259;28;20227;-69
2021/12/07 15:10:14;;;;;;;6.33;2.47;;;5.60;99.90;;;;;;10411898;28;20216;-70
2021/12/07 15:15:16;;;;;;;5.97;2.83;;;5.50;99.90;;;;;;10418884;28;20741;-69
2021/12/07 15:20:16;;;;;;;7.73;2.47;;;5.40;99.90;;;;;;10418032;28;20644;-68
2021/12/07 15:25:18;;;;;;;9.47;2.47;;;5.40;99.90;;;;;;10416176;28;20195;-69
2021/12/07 15:30:19;;;;;;;6.47;2.83;;;5.40;99.90;;;;;;10393948;28;20280;-70
2021/12/07 15:35:25;;;;;;;11.63;3.67;;;5.40;99.90;;;;;;10399727;28;20201;-70
2021/12/07 15:40:26;;;;;;;8.40;2.67;;;5.40;99.90;;;;;;10419472;28;20235;-70
2021/12/07 15:45:26;;;;;;;8.27;2.67;;;5.40;99.90;;;;;;10422448;28;20208;-70
2021/12/07 15:50:30;;;;;;;8.27;2.40;;;5.40;99.90;;;;;;10426312;28;20212;-70
2021/12/07 15:55:35;;;;;;;6.43;2.30;;;5.40;99.90;;;;;;10418683;28;20236;-70
2021/12/07 16:00:41;;;;;;;9.23;2.00;;;5.40;99.90;;;;;;10419735;28;20249;-70
2021/12/07 16:05:44;;;;;;;8.13;2.23;;;5.30;99.90;;;;;;10417400;28;20220;-70
2021/12/07 16:10:48;;;;;;;7.57;2.17;;;5.30;99.90;;;;;;10416309;28;20221;-71
2021/12/07 16:15:55;;;;;;;8.03;2.27;;;5.20;99.90;;;;;;10416166;28;20232;-70
2021/12/07 16:20:59;;;;;;;5.13;2.03;;;5.30;99.90;;;;;;10417946;28;20681;-71
2021/12/07 16:26:01;;;;;;;7.17;2.30;;;5.30;99.90;;;;;;10410649;28;20260;-71
2021/12/07 16:31:02;;;;;;;5.33;2.40;;;5.30;99.90;;;;;;10415184;28;20224;-69
2021/12/07 16:36:05;;;;;;;10.27;2.23;;;5.30;99.90;;;;;;10415002;28;20236;-69
2021/12/07 16:41:07;;;;;;;5.93;2.50;;;5.20;99.90;;;;;;10413447;28;20668;-70
2021/12/07 16:46:08;;;;;;;10.97;2.60;;;5.10;99.90;;;;;;10397806;28;20244;-70
2021/12/07 16:51:10;;;;;;;7.70;2.90;;;5.00;99.90;;;;;;10413845;28;20738;-70
2021/12/07 16:56:11;;;;;;;12.50;3.40;;;5.10;99.90;;;;;;10414268;28;20228;-69
2021/12/07 17:01:12;;;;;;;8.37;2.70;;;5.00;99.90;;;;;;10413360;28;20307;-70
2021/12/07 17:06:13;;;;;;;8.90;2.53;;;4.90;99.90;;;;;;10404739;28;20240;-70
2021/12/07 17:11:14;;;;;;;8.20;2.87;;;4.80;99.90;;;;;;10411085;28;20664;-70
2021/12/07 17:16:15;;;;;;;6.17;2.30;;;4.80;99.90;;;;;;10412083;28;20259;-70
2021/12/07 17:21:15;;;;;;;10.70;2.70;;;4.70;99.90;;;;;;10410364;28;20265;-69
2021/12/07 17:26:16;;;;;;;7.57;3.00;;;4.70;99.90;;;;;;10401077;28;20311;-69
2021/12/07 17:31:17;;;;;;;8.67;2.67;;;4.70;99.90;;;;;;10410837;28;20244;-70
2021/12/07 17:36:17;;;;;;;7.40;2.60;;;4.80;99.90;;;;;;10401064;28;20618;-70
2021/12/07 17:41:18;;;;;;;7.93;2.40;;;4.90;99.90;;;;;;10398810;28;20304;-70
2021/12/07 17:46:19;;;;;;;9.40;2.63;;;4.90;99.90;;;;;;10391363;28;20228;-71
2021/12/07 17:51:20;;;;;;;9.67;3.07;;;4.90;99.90;;;;;;10410927;28;20594;-70
2021/12/07 17:56:20;;;;;;;5.60;2.13;;;4.80;99.90;;;;;;10410754;28;20240;-70
2021/12/07 18:01:21;;;;;;;7.33;2.37;;;4.70;99.90;;;;;;10411356;28;20298;-71
2021/12/07 18:06:23;;;;;;;7.27;2.50;;;4.70;99.90;;;;;;10409916;28;20541;-70
2021/12/07 18:11:25;;;;;;;9.33;2.57;;;4.60;99.90;;;;;;10410965;28;20220;-70
2021/12/07 18:16:28;;;;;;;9.57;2.77;;;4.50;99.90;;;;;;10412066;28;20229;-71
2021/12/07 18:21:32;;;;;;;5.97;2.60;;;4.50;99.90;;;;;;10391488;28;20218;-70
2021/12/07 18:26:33;;;;;;;6.67;2.47;;;4.50;99.90;;;;;;10409970;28;20300;-70
2021/12/07 18:31:34;;;;;;;4.30;2.17;;;4.60;99.90;;;;;;10410224;28;20575;-70
2021/12/07 18:36:34;;;;;;;6.80;2.23;;;4.60;99.90;;;;;;10417531;28;20233;-70
2021/12/07 18:41:35;;;;;;;5.37;2.77;;;4.60;99.90;;;;;;10415744;28;20227;-71
2021/12/07 18:46:35;;;;;;;9.83;3.00;;;4.60;99.90;;;;;;10401535;28;20213;-70
2021/12/07 18:51:37;;;;;;;6.97;2.90;;;4.70;99.90;;;;;;10402743;28;20244;-70
2021/12/07 18:56:38;;;;;;;8.57;2.73;;;4.70;99.90;;;;;;10416528;28;20235;-70
2021/12/07 19:01:39;;;;;;;7.50;2.97;;;4.70;99.90;;;;;;10415983;28;20227;-70
2021/12/07 19:06:39;;;;;;;7.63;2.30;;;4.70;99.90;;;;;;10405018;28;20221;-70
2021/12/07 19:11:41;;;;;;;4.43;2.37;;;4.80;99.90;;;;;;10401290;28;20216;-70
2021/12/07 19:16:42;;;;;;;8.20;2.77;;;4.70;99.90;;;;;;10400540;28;20241;-70
2021/12/07 19:21:42;;;;;;;7.63;2.23;;;4.80;99.90;;;;;;10416522;28;20224;-70
2021/12/07 19:26:43;;;;;;;7.87;2.93;;;4.70;99.90;;;;;;10415175;28;20245;-70
2021/12/07 19:31:45;;;;;;;10.10;2.83;;;4.60;99.90;;;;;;10404966;28;20776;-70
2021/12/07 19:36:46;;;;;;;7.00;2.20;;;4.60;99.90;;;;;;10405591;28;20278;-70
2021/12/07 19:41:47;;;;;;;4.83;2.00;;;4.60;99.90;;;;;;10401366;28;20881;-70
2021/12/07 19:46:52;;;;;;;6.47;2.00;;;4.50;99.90;;;;;;10394849;28;20292;-70
2021/12/07 19:51:54;;;;;;;6.37;2.20;;;4.50;99.90;;;;;;10415646;28;20221;-70
2021/12/07 19:56:57;;;;;;;9.17;2.40;;;4.50;99.90;;;;;;10415194;28;20229;-71
2021/12/07 20:02:01;;;;;;;5.97;2.30;;;4.40;99.90;;;;;;10412052;28;20216;-71
2021/12/07 20:07:05;;;;;;;5.03;1.67;;;4.50;99.90;;;;;;10411620;28;20326;-70
2021/12/07 20:12:07;;;;;;;4.70;2.23;;;4.40;99.90;;;;;;10399774;28;20275;-70
2021/12/07 20:17:14;;;;;;;7.97;2.30;;;4.40;99.90;;;;;;10391689;28;20233;-70
2021/12/07 20:22:14;;;;;;;5.67;1.77;;;4.50;99.90;;;;;;10390056;28;20688;-70
2021/12/07 20:27:17;;;;;;;6.90;2.50;;;4.50;99.90;;;;;;10414700;28;20220;-71
2021/12/07 20:32:18;;;;;;;5.73;2.37;;;4.50;99.90;;;;;;10388030;28;20208;-71
2021/12/07 20:37:18;;;;;;;6.63;1.80;;;4.50;99.90;;;;;;10398265;28;20267;-71
2021/12/07 20:42:19;;;;;;;5.53;2.00;;;4.50;99.90;;;;;;10393750;28;20213;-70
2021/12/07 20:47:20;;;;;;;5.60;2.27;;;4.60;99.90;;;;;;10412397;28;20216;-70
2021/12/07 20:52:21;;;;;;;5.17;2.20;;;4.60;99.90;;;;;;10413913;28;20231;-72
2021/12/07 20:57:23;;;;;;;6.07;1.70;;;4.60;99.90;;;;;;10412601;28;20278;-72
2021/12/07 21:02:23;;;;;;;7.33;2.00;;;4.60;99.90;;;;;;10403863;28;20251;-70
2021/12/07 21:07:24;;;;;;;5.20;1.63;;;4.60;99.90;;;;;;10414148;28;20263;-70
2021/12/07 21:12:25;;;;;;;3.53;1.47;;;4.60;99.90;;;;;;10412593;28;20410;-70
2021/12/07 21:17:26;;;;;;;4.27;2.00;;;4.70;99.90;;;;;;10406728;28;20232;-71
2021/12/07 21:22:28;;;;;;;3.70;2.10;;;4.60;99.90;;;;;;10402976;28;20229;-70
2021/12/07 21:27:28;;;;;;;7.67;2.03;;;4.80;99.90;;;;;;10406387;28;20682;-71
2021/12/07 21:32:29;;;;;;;4.93;1.70;;;4.90;99.90;;;;;;10411873;28;20294;-70
2021/12/07 21:37:30;;;;;;;3.40;1.93;;;4.90;99.90;;;;;;10412745;28;20233;-70
2021/12/07 21:42:31;;;;;;;5.30;1.90;;;4.90;99.90;;;;;;10390818;28;20715;-71
2021/12/07 21:47:31;;;;;;;5.53;1.73;;;4.80;99.90;;;;;;10391380;28;20228;-72
2021/12/07 21:52:33;;;;;;;6.80;2.10;;;4.70;99.90;;;;;;10411425;28;20224;-70
2021/12/07 21:57:34;;;;;;;3.70;1.60;;;4.70;99.90;;;;;;10411154;28;20239;-70
2021/12/07 22:02:34;;;;;;;4.20;1.77;;;4.70;99.90;;;;;;10413273;28;20299;-71
2021/12/07 22:07:35;;;;;;;4.50;1.63;;;4.70;99.90;;;;;;10414204;28;20251;-70
2021/12/07 22:12:37;;;;;;;3.90;1.65;;;4.70;99.90;;;;;;10417368;28;20695;-70
2021/12/07 22:17:38;;;;;;;3.63;1.50;;;4.80;99.90;;;;;;10390843;28;20478;-70
2021/12/07 22:22:39;;;;;;;2.10;1.37;;;4.90;99.90;;;;;;10417787;28;20263;-70
2021/12/07 22:27:40;;;;;;;3.37;1.47;;;5.10;99.90;;;;;;10420008;28;20282;-70
2021/12/07 22:32:42;;;;;;;2.47;1.20;;;5.20;99.90;;;;;;10417829;28;20227;-69
2021/12/07 22:37:46;;;;;;;2.93;1.40;;;5.40;99.90;;;;;;10407939;28;20224;-70
2021/12/07 22:42:47;;;;;;;2.80;1.30;;;5.50;99.90;;;;;;10419234;28;20216;-71
2021/12/07 22:47:48;;;;;;;5.60;1.70;;;5.60;99.90;;;;;;10417020;28;20216;-71
2021/12/07 22:52:48;;;;;;;4.80;1.67;;;5.60;99.90;;;;;;10419473;28;20224;-70
2021/12/07 22:57:49;;;;;;;3.83;1.40;;;5.70;99.90;;;;;;10419036;28;20231;-71
2021/12/07 23:02:59;;;;;;;1.80;1.27;;;5.70;99.90;;;;;;10420253;28;20312;-70
2021/12/07 23:08:01;;;;;;;2.10;1.13;;;5.90;99.90;;;;;;10418680;28;20234;-70
2021/12/07 23:13:05;;;;;;;2.80;1.10;;;6.00;99.90;;;;;;10416263;28;20275;-69
2021/12/07 23:18:11;;;;;;;4.20;1.23;;;6.10;99.90;;;;;;10403225;28;20244;-71
2021/12/07 23:23:12;;;;;;;2.13;0.90;;;6.10;99.90;;;;;;10400796;28;20611;-71
2021/12/07 23:28:16;;;;;;;1.27;1.03;;;6.20;99.90;;;;;;10417872;28;20251;-71
2021/12/07 23:33:18;;;;;;;3.23;1.30;;;6.20;99.90;;;;;;10417122;28;20251;-71
2021/12/07 23:38:19;;;;;;;2.60;1.13;;;6.10;99.90;;;;;;10398032;28;20213;-75
2021/12/07 23:43:21;;;;;;;5.07;1.57;;;6.20;99.90;;;;;;10416656;28;20699;-71
2021/12/07 23:48:22;;;;;;;3.20;1.10;;;6.30;99.90;;;;;;10405778;28;20361;-69
2021/12/07 23:53:23;;;;;;;4.50;1.40;;;6.30;99.90;;;;;;10416180;28;20228;-70
2021/12/07 23:58:23;;;;;;;1.73;1.30;;;6.30;99.90;;;;;;10415283;28;20252;-70
